sensor_id;sensor_type;location;lat;lon;timestamp;pressure;altitude;pressure_sealevel;temperature;humidity
55675;BME280;41562;44.330;23.802;2023-03-25T00:00:26;99788.59;;;10.34;86.10
55675;BME280;41562;44.330;23.802;2023-03-25T00:02:53;99782.34;;;10.09;86.51
55675;BME280;41562;44.330;23.802;2023-03-25T00:05:21;99773.78;;;10.07;87.14
55675;BME280;41562;44.330;23.802;2023-03-25T00:07:51;99781.03;;;10.41;91.16
55675;BME280;41562;44.330;23.802;2023-03-25T00:10:19;99789.19;;;10.26;86.72
55675;BME280;41562;44.330;23.802;2023-03-25T00:12:46;99785.06;;;10.04;86.93
55675;BME280;41562;44.330;23.802;2023-03-25T00:15:14;99785.06;;;10.04;86.84
55675;BME280;41562;44.330;23.802;2023-03-25T00:17:41;99786.97;;;9.94;88.25
55675;BME280;41562;44.330;23.802;2023-03-25T00:20:10;99796.72;;;9.75;89.00
55675;BME280;41562;44.330;23.802;2023-03-25T00:22:38;99793.19;;;9.84;88.72
55675;BME280;41562;44.330;23.802;2023-03-25T00:25:08;99792.09;;;9.90;88.39
55675;BME280;41562;44.330;23.802;2023-03-25T00:27:36;99782.91;;;10.01;90.44
55675;BME280;41562;44.330;23.802;2023-03-25T00:30:04;99784.56;;;9.97;89.21
55675;BME280;41562;44.330;23.802;2023-03-25T00:32:31;99784.53;;;9.58;89.54
55675;BME280;41562;44.330;23.802;2023-03-25T00:34:59;99780.50;;;9.66;89.40
55675;BME280;41562;44.330;23.802;2023-03-25T00:37:26;99781.00;;;9.73;92.75
55675;BME280;41562;44.330;23.802;2023-03-25T00:39:54;99785.75;;;9.76;90.01
55675;BME280;41562;44.330;23.802;2023-03-25T00:42:21;99779.94;;;10.08;87.47
55675;BME280;41562;44.330;23.802;2023-03-25T00:44:49;99768.59;;;9.87;88.11
55675;BME280;41562;44.330;23.802;2023-03-25T00:47:16;99769.25;;;9.69;92.66
55675;BME280;41562;44.330;23.802;2023-03-25T00:49:43;99766.56;;;9.69;90.83
55675;BME280;41562;44.330;23.802;2023-03-25T00:52:11;99768.63;;;9.82;88.84
55675;BME280;41562;44.330;23.802;2023-03-25T00:54:38;99768.75;;;9.62;89.52
55675;BME280;41562;44.330;23.802;2023-03-25T00:57:06;99764.22;;;9.62;91.90
55675;BME280;41562;44.330;23.802;2023-03-25T00:59:33;99767.44;;;9.59;90.79
55675;BME280;41562;44.330;23.802;2023-03-25T01:02:01;99763.75;;;9.50;90.03
55675;BME280;41562;44.330;23.802;2023-03-25T01:04:28;99765.91;;;9.48;90.13
55675;BME280;41562;44.330;23.802;2023-03-25T01:06:56;99774.59;;;9.69;89.00
55675;BME280;41562;44.330;23.802;2023-03-25T01:09:23;99760.44;;;9.74;91.51
55675;BME280;41562;44.330;23.802;2023-03-25T01:11:50;99759.19;;;9.56;90.30
55675;BME280;41562;44.330;23.802;2023-03-25T01:14:19;99747.19;;;9.53;90.15
55675;BME280;41562;44.330;23.802;2023-03-25T01:16:47;99752.53;;;9.53;90.24
55675;BME280;41562;44.330;23.802;2023-03-25T01:19:17;99743.03;;;9.76;95.54
55675;BME280;41562;44.330;23.802;2023-03-25T01:21:44;99747.09;;;9.68;89.49
55675;BME280;41562;44.330;23.802;2023-03-25T01:24:13;99745.56;;;9.57;89.55
55675;BME280;41562;44.330;23.802;2023-03-25T01:26:41;99736.22;;;9.55;89.63
55675;BME280;41562;44.330;23.802;2023-03-25T01:29:10;99736.84;;;9.81;96.13
55675;BME280;41562;44.330;23.802;2023-03-25T01:31:38;99733.59;;;9.50;89.40
55675;BME280;41562;44.330;23.802;2023-03-25T01:34:06;99732.25;;;9.52;89.10
55675;BME280;41562;44.330;23.802;2023-03-25T01:36:34;99730.44;;;9.48;89.75
55675;BME280;41562;44.330;23.802;2023-03-25T01:39:02;99726.22;;;9.32;92.66
55675;BME280;41562;44.330;23.802;2023-03-25T01:41:31;99732.94;;;9.29;90.30
55675;BME280;41562;44.330;23.802;2023-03-25T01:46:50;99730.56;;;9.17;91.18
55675;BME280;41562;44.330;23.802;2023-03-25T01:49:30;99715.03;;;9.29;93.18
55675;BME280;41562;44.330;23.802;2023-03-25T01:52:05;99714.72;;;9.41;90.41
55675;BME280;41562;44.330;23.802;2023-03-25T01:54:34;99719.28;;;9.36;90.18
55675;BME280;41562;44.330;23.802;2023-03-25T01:57:02;99715.41;;;9.08;90.82
55675;BME280;41562;44.330;23.802;2023-03-25T01:59:30;99717.50;;;9.21;94.50
55675;BME280;41562;44.330;23.802;2023-03-25T02:02:00;99707.91;;;9.15;91.08
55675;BME280;41562;44.330;23.802;2023-03-25T02:04:39;99705.50;;;9.13;91.02
55675;BME280;41562;44.330;23.802;2023-03-25T02:07:10;99695.44;;;9.00;92.12
55675;BME280;41562;44.330;23.802;2023-03-25T02:09:38;99695.97;;;9.02;92.18
55675;BME280;41562;44.330;23.802;2023-03-25T02:12:06;99693.84;;;8.99;91.80
55675;BME280;41562;44.330;23.802;2023-03-25T02:14:35;99690.94;;;8.96;92.53
55675;BME280;41562;44.330;23.802;2023-03-25T02:23:03;99696.47;;;9.04;91.56
55675;BME280;41562;44.330;23.802;2023-03-25T02:26:34;99697.81;;;9.07;91.14
55675;BME280;41562;44.330;23.802;2023-03-25T02:29:14;99683.16;;;9.09;96.79
55675;BME280;41562;44.330;23.802;2023-03-25T02:32:00;99682.22;;;8.75;92.01
55675;BME280;41562;44.330;23.802;2023-03-25T02:37:31;99683.56;;;8.67;94.27
55675;BME280;41562;44.330;23.802;2023-03-25T02:40:13;99684.66;;;8.61;92.90
55675;BME280;41562;44.330;23.802;2023-03-25T02:42:49;99697.47;;;8.59;93.67
55675;BME280;41562;44.330;23.802;2023-03-25T02:45:24;99690.75;;;8.67;92.74
55675;BME280;41562;44.330;23.802;2023-03-25T02:50:57;99700.84;;;8.80;92.18
55675;BME280;41562;44.330;23.802;2023-03-25T02:53:29;99693.72;;;8.65;93.67
55675;BME280;41562;44.330;23.802;2023-03-25T02:56:02;99698.22;;;8.70;93.01
55675;BME280;41562;44.330;23.802;2023-03-25T02:58:31;99698.44;;;8.83;96.94
55675;BME280;41562;44.330;23.802;2023-03-25T03:00:59;99698.97;;;8.80;93.34
55675;BME280;41562;44.330;23.802;2023-03-25T03:03:27;99692.31;;;8.83;93.34
55675;BME280;41562;44.330;23.802;2023-03-25T03:05:58;99690.16;;;8.90;92.35
55675;BME280;41562;44.330;23.802;2023-03-25T03:16:47;99679.03;;;8.68;93.74
55675;BME280;41562;44.330;23.802;2023-03-25T03:22:51;99680.66;;;8.64;93.94
55675;BME280;41562;44.330;23.802;2023-03-25T03:28:27;99677.78;;;8.35;97.09
55675;BME280;41562;44.330;23.802;2023-03-25T03:31:06;99676.19;;;8.39;96.58
55675;BME280;41562;44.330;23.802;2023-03-25T03:36:11;99679.16;;;8.32;94.67
55675;BME280;41562;44.330;23.802;2023-03-25T03:38:52;99686.56;;;8.45;97.26
55675;BME280;41562;44.330;23.802;2023-03-25T03:41:25;99695.38;;;8.26;95.74
55675;BME280;41562;44.330;23.802;2023-03-25T03:43:58;99699.91;;;8.20;95.99
55675;BME280;41562;44.330;23.802;2023-03-25T03:46:32;99685.03;;;8.09;96.57
55675;BME280;41562;44.330;23.802;2023-03-25T03:49:03;99687.16;;;8.02;98.35
55675;BME280;41562;44.330;23.802;2023-03-25T03:51:39;99684.72;;;8.31;96.15
55675;BME280;41562;44.330;23.802;2023-03-25T03:54:31;99690.81;;;8.41;94.77
55675;BME280;41562;44.330;23.802;2023-03-25T03:57:07;99686.56;;;8.45;93.63
55675;BME280;41562;44.330;23.802;2023-03-25T03:59:46;99685.47;;;8.57;100.00
55675;BME280;41562;44.330;23.802;2023-03-25T04:02:23;99694.59;;;8.30;95.69
55675;BME280;41562;44.330;23.802;2023-03-25T04:04:53;99701.50;;;8.41;94.46
55675;BME280;41562;44.330;23.802;2023-03-25T04:07:38;99712.16;;;8.36;94.86
55675;BME280;41562;44.330;23.802;2023-03-25T04:10:15;99700.97;;;8.04;97.48
55675;BME280;41562;44.330;23.802;2023-03-25T04:12:47;99705.78;;;8.07;95.67
55675;BME280;41562;44.330;23.802;2023-03-25T04:15:17;99698.31;;;7.99;95.78
55675;BME280;41562;44.330;23.802;2023-03-25T04:17:46;99698.31;;;7.99;96.97
55675;BME280;41562;44.330;23.802;2023-03-25T04:20:15;99705.25;;;7.95;99.40
55675;BME280;41562;44.330;23.802;2023-03-25T04:22:45;99709.50;;;8.11;95.83
55675;BME280;41562;44.330;23.802;2023-03-25T04:25:12;99707.38;;;8.08;95.46
55675;BME280;41562;44.330;23.802;2023-03-25T04:27:43;99705.25;;;7.90;98.22
55675;BME280;41562;44.330;23.802;2023-03-25T04:30:11;99701.00;;;8.09;97.93
55675;BME280;41562;44.330;23.802;2023-03-25T04:32:47;99699.13;;;7.99;96.59
55675;BME280;41562;44.330;23.802;2023-03-25T04:35:16;99702.84;;;8.08;95.70
55675;BME280;41562;44.330;23.802;2023-03-25T04:37:45;99700.97;;;8.04;96.12
55675;BME280;41562;44.330;23.802;2023-03-25T04:40:15;99708.44;;;7.97;96.97
55675;BME280;41562;44.330;23.802;2023-03-25T04:42:46;99707.81;;;11.88;87.31
55675;BME280;41562;44.330;23.802;2023-03-25T04:45:15;99706.22;;;11.68;81.37
55675;BME280;41562;44.330;23.802;2023-03-25T04:47:45;99706.16;;;12.38;78.36
55675;BME280;41562;44.330;23.802;2023-03-25T04:50:21;99701.38;;;12.35;77.47
55675;BME280;41562;44.330;23.802;2023-03-25T04:52:50;99701.44;;;12.76;82.96
55675;BME280;41562;44.330;23.802;2023-03-25T04:55:21;99699.66;;;11.80;80.96
55675;BME280;41562;44.330;23.802;2023-03-25T04:57:51;99714.88;;;11.23;80.84
55675;BME280;41562;44.330;23.802;2023-03-25T05:00:24;99711.88;;;11.86;80.21
55675;BME280;41562;44.330;23.802;2023-03-25T05:02:54;99718.50;;;12.67;75.75
55675;BME280;41562;44.330;23.802;2023-03-25T05:05:23;99727.28;;;11.94;75.38
55675;BME280;41562;44.330;23.802;2023-03-25T05:07:53;99722.88;;;12.90;71.85
55675;BME280;41562;44.330;23.802;2023-03-25T05:10:27;99724.03;;;13.52;71.93
55675;BME280;41562;44.330;23.802;2023-03-25T05:12:59;99719.50;;;13.61;70.09
55675;BME280;41562;44.330;23.802;2023-03-25T05:15:27;99721.66;;;14.18;65.42
55675;BME280;41562;44.330;23.802;2023-03-25T05:17:56;99725.28;;;12.64;73.30
55675;BME280;41562;44.330;23.802;2023-03-25T05:20:23;99725.16;;;12.09;74.66
55675;BME280;41562;44.330;23.802;2023-03-25T05:22:51;99741.97;;;11.96;77.84
55675;BME280;41562;44.330;23.802;2023-03-25T05:25:18;99742.47;;;11.98;74.87
55675;BME280;41562;44.330;23.802;2023-03-25T05:27:46;99733.47;;;12.08;76.13
55675;BME280;41562;44.330;23.802;2023-03-25T05:30:14;99727.22;;;12.59;79.24
55675;BME280;41562;44.330;23.802;2023-03-25T05:32:41;99740.25;;;12.52;79.11
55675;BME280;41562;44.330;23.802;2023-03-25T05:35:09;99745.75;;;12.87;74.47
55675;BME280;41562;44.330;23.802;2023-03-25T05:37:36;99742.59;;;13.62;72.04
55675;BME280;41562;44.330;23.802;2023-03-25T05:40:04;99758.31;;;13.69;71.32
55675;BME280;41562;44.330;23.802;2023-03-25T05:42:41;99760.66;;;14.06;74.95
55675;BME280;41562;44.330;23.802;2023-03-25T05:45:09;99760.66;;;14.29;72.79
55675;BME280;41562;44.330;23.802;2023-03-25T05:47:37;99752.97;;;14.14;70.92
55675;BME280;41562;44.330;23.802;2023-03-25T05:50:05;99758.00;;;14.60;68.55
55675;BME280;41562;44.330;23.802;2023-03-25T05:52:33;99756.59;;;14.62;67.82
55675;BME280;41562;44.330;23.802;2023-03-25T05:55:00;99764.31;;;14.55;69.63
55675;BME280;41562;44.330;23.802;2023-03-25T05:57:28;99760.81;;;14.55;73.17
55675;BME280;41562;44.330;23.802;2023-03-25T05:59:55;99760.47;;;14.78;67.66
55675;BME280;41562;44.330;23.802;2023-03-25T06:02:23;99764.22;;;13.57;70.82
55675;BME280;41562;44.330;23.802;2023-03-25T06:04:51;99758.56;;;12.31;76.33
55675;BME280;41562;44.330;23.802;2023-03-25T06:07:19;99751.88;;;11.96;82.05
55675;BME280;41562;44.330;23.802;2023-03-25T06:09:51;99760.59;;;12.53;76.67
55675;BME280;41562;44.330;23.802;2023-03-25T06:12:20;99754.88;;;11.94;79.24
55675;BME280;41562;44.330;23.802;2023-03-25T06:14:48;99751.81;;;12.33;79.76
55675;BME280;41562;44.330;23.802;2023-03-25T06:17:15;99747.44;;;12.70;77.79
55675;BME280;41562;44.330;23.802;2023-03-25T06:19:43;99746.72;;;13.46;75.54
55675;BME280;41562;44.330;23.802;2023-03-25T06:22:11;99748.63;;;13.05;75.67
55675;BME280;41562;44.330;23.802;2023-03-25T06:24:39;99742.75;;;11.97;79.82
55675;BME280;41562;44.330;23.802;2023-03-25T06:27:12;99739.91;;;11.75;81.63
55675;BME280;41562;44.330;23.802;2023-03-25T06:29:40;99729.28;;;12.02;81.21
55675;BME280;41562;44.330;23.802;2023-03-25T06:32:11;99718.50;;;13.08;77.70
55675;BME280;41562;44.330;23.802;2023-03-25T06:34:39;99712.50;;;13.52;75.32
55675;BME280;41562;44.330;23.802;2023-03-25T06:37:07;99705.63;;;14.35;70.74
55675;BME280;41562;44.330;23.802;2023-03-25T06:39:35;99704.00;;;14.47;68.48
55675;BME280;41562;44.330;23.802;2023-03-25T06:42:03;99707.94;;;15.63;66.60
55675;BME280;41562;44.330;23.802;2023-03-25T06:44:31;99718.63;;;16.32;62.89
55675;BME280;41562;44.330;23.802;2023-03-25T06:47:00;99733.88;;;16.20;63.48
55675;BME280;41562;44.330;23.802;2023-03-25T06:49:27;99733.56;;;15.44;65.37
55675;BME280;41562;44.330;23.802;2023-03-25T06:51:55;99736.41;;;14.82;67.69
55675;BME280;41562;44.330;23.802;2023-03-25T06:54:26;99735.03;;;14.93;72.31
55675;BME280;41562;44.330;23.802;2023-03-25T06:56:53;99729.66;;;15.58;66.56
55675;BME280;41562;44.330;23.802;2023-03-25T06:59:21;99736.88;;;15.49;66.33
55675;BME280;41562;44.330;23.802;2023-03-25T07:01:48;99729.78;;;14.79;68.20
55675;BME280;41562;44.330;23.802;2023-03-25T07:04:16;99728.50;;;14.24;71.32
55675;BME280;41562;44.330;23.802;2023-03-25T07:06:45;99717.28;;;13.99;71.99
55675;BME280;41562;44.330;23.802;2023-03-25T07:09:13;99712.19;;;13.76;73.56
55675;BME280;41562;44.330;23.802;2023-03-25T07:11:40;99722.69;;;14.30;71.44
55675;BME280;41562;44.330;23.802;2023-03-25T07:14:08;99725.91;;;15.20;68.68
55675;BME280;41562;44.330;23.802;2023-03-25T07:16:35;99726.78;;;15.63;67.20
55675;BME280;41562;44.330;23.802;2023-03-25T07:19:04;99723.63;;;15.61;65.63
55675;BME280;41562;44.330;23.802;2023-03-25T07:21:31;99721.38;;;16.15;64.80
55675;BME280;41562;44.330;23.802;2023-03-25T07:23:58;99720.31;;;15.73;63.50
55675;BME280;41562;44.330;23.802;2023-03-25T07:26:26;99708.06;;;15.76;65.38
55675;BME280;41562;44.330;23.802;2023-03-25T07:28:53;99713.63;;;15.71;65.69
55675;BME280;41562;44.330;23.802;2023-03-25T07:31:20;99716.00;;;15.63;63.28
55675;BME280;41562;44.330;23.802;2023-03-25T07:33:48;99714.22;;;15.50;63.32
55675;BME280;41562;44.330;23.802;2023-03-25T07:36:15;99714.56;;;15.49;64.37
55675;BME280;41562;44.330;23.802;2023-03-25T07:38:42;99700.78;;;15.59;63.80
55675;BME280;41562;44.330;23.802;2023-03-25T07:41:11;99703.31;;;15.81;63.85
55675;BME280;41562;44.330;23.802;2023-03-25T07:43:39;99701.63;;;16.32;62.15
55675;BME280;41562;44.330;23.802;2023-03-25T07:46:07;99705.34;;;16.74;60.12
55675;BME280;41562;44.330;23.802;2023-03-25T07:48:35;99706.38;;;17.19;58.28
55675;BME280;41562;44.330;23.802;2023-03-25T07:51:02;99693.44;;;17.04;58.55
55675;BME280;41562;44.330;23.802;2023-03-25T07:53:30;99698.41;;;16.56;59.44
55675;BME280;41562;44.330;23.802;2023-03-25T07:55:57;99705.44;;;16.86;58.76
55675;BME280;41562;44.330;23.802;2023-03-25T07:58:25;99702.16;;;17.31;58.17
55675;BME280;41562;44.330;23.802;2023-03-25T08:00:55;99703.50;;;17.87;57.35
55675;BME280;41562;44.330;23.802;2023-03-25T08:03:23;99694.16;;;18.41;55.11
55675;BME280;41562;44.330;23.802;2023-03-25T08:05:51;99702.94;;;18.71;52.91
55675;BME280;41562;44.330;23.802;2023-03-25T08:08:19;99708.31;;;18.59;54.67
55675;BME280;41562;44.330;23.802;2023-03-25T08:10:46;99714.84;;;18.46;55.40
55675;BME280;41562;44.330;23.802;2023-03-25T08:13:14;99717.97;;;18.03;54.97
55675;BME280;41562;44.330;23.802;2023-03-25T08:15:41;99703.56;;;17.78;58.40
55675;BME280;41562;44.330;23.802;2023-03-25T08:18:08;99706.69;;;17.68;54.48
55675;BME280;41562;44.330;23.802;2023-03-25T08:20:37;99704.44;;;17.70;54.54
55675;BME280;41562;44.330;23.802;2023-03-25T08:23:04;99700.84;;;17.78;55.91
55675;BME280;41562;44.330;23.802;2023-03-25T08:25:32;99707.81;;;17.58;59.34
55675;BME280;41562;44.330;23.802;2023-03-25T08:27:59;99694.13;;;17.43;57.59
55675;BME280;41562;44.330;23.802;2023-03-25T08:30:26;99701.69;;;17.28;59.60
55675;BME280;41562;44.330;23.802;2023-03-25T08:32:54;99706.09;;;17.12;60.25
55675;BME280;41562;44.330;23.802;2023-03-25T08:35:22;99703.03;;;17.14;60.25
55675;BME280;41562;44.330;23.802;2023-03-25T08:37:50;99703.94;;;16.97;60.92
55675;BME280;41562;44.330;23.802;2023-03-25T08:40:18;99697.91;;;17.00;61.95
55675;BME280;41562;44.330;23.802;2023-03-25T08:42:47;99689.66;;;17.26;61.52
55675;BME280;41562;44.330;23.802;2023-03-25T08:45:14;99689.91;;;17.54;60.92
55675;BME280;41562;44.330;23.802;2023-03-25T08:47:42;99693.84;;;17.36;63.19
55675;BME280;41562;44.330;23.802;2023-03-25T08:50:10;99693.28;;;17.51;61.91
55675;BME280;41562;44.330;23.802;2023-03-25T08:52:37;99688.06;;;17.87;60.78
55675;BME280;41562;44.330;23.802;2023-03-25T08:55:05;99685.75;;;18.10;60.93
55675;BME280;41562;44.330;23.802;2023-03-25T08:57:34;99684.66;;;17.90;61.40
55675;BME280;41562;44.330;23.802;2023-03-25T09:00:05;99686.75;;;18.05;62.00
55675;BME280;41562;44.330;23.802;2023-03-25T09:02:32;99684.06;;;18.05;61.95
55675;BME280;41562;44.330;23.802;2023-03-25T09:05:00;99679.69;;;18.13;60.50
55675;BME280;41562;44.330;23.802;2023-03-25T09:07:27;99678.69;;;18.30;59.76
55675;BME280;41562;44.330;23.802;2023-03-25T09:09:55;99672.59;;;18.21;61.72
55675;BME280;41562;44.330;23.802;2023-03-25T09:12:22;99669.09;;;18.20;62.26
55675;BME280;41562;44.330;23.802;2023-03-25T09:14:50;99667.13;;;18.08;62.57
55675;BME280;41562;44.330;23.802;2023-03-25T09:17:17;99672.97;;;17.98;62.38
55675;BME280;41562;44.330;23.802;2023-03-25T09:19:44;99663.06;;;18.02;62.44
55675;BME280;41562;44.330;23.802;2023-03-25T09:22:11;99663.41;;;18.46;61.85
55675;BME280;41562;44.330;23.802;2023-03-25T09:24:39;99656.38;;;19.06;61.83
55675;BME280;41562;44.330;23.802;2023-03-25T09:27:07;99653.91;;;19.81;58.72
55675;BME280;41562;44.330;23.802;2023-03-25T09:29:34;99654.22;;;19.63;58.65
55675;BME280;41562;44.330;23.802;2023-03-25T09:32:02;99653.47;;;20.22;56.98
55675;BME280;41562;44.330;23.802;2023-03-25T09:34:29;99654.09;;;20.16;57.19
55675;BME280;41562;44.330;23.802;2023-03-25T09:36:57;99648.16;;;19.54;58.37
55675;BME280;41562;44.330;23.802;2023-03-25T09:39:24;99655.41;;;19.50;59.56
55675;BME280;41562;44.330;23.802;2023-03-25T09:50:33;99635.19;;;20.51;55.30
55675;BME280;41562;44.330;23.802;2023-03-25T09:55:53;99638.97;;;20.46;59.62
55675;BME280;41562;44.330;23.802;2023-03-25T10:01:22;99636.22;;;20.15;54.88
55675;BME280;41562;44.330;23.802;2023-03-25T10:12:31;99636.03;;;19.24;58.75
55675;BME280;41562;44.330;23.802;2023-03-25T10:20:48;99626.50;;;18.78;59.32
55675;BME280;41562;44.330;23.802;2023-03-25T10:29:15;99624.94;;;18.89;58.60
55675;BME280;41562;44.330;23.802;2023-03-25T10:31:53;99627.84;;;18.96;56.91
55675;BME280;41562;44.330;23.802;2023-03-25T10:34:31;99626.81;;;19.01;57.77
55675;BME280;41562;44.330;23.802;2023-03-25T10:37:05;99623.78;;;19.02;58.87
55675;BME280;41562;44.330;23.802;2023-03-25T10:39:37;99628.19;;;18.95;58.17
55675;BME280;41562;44.330;23.802;2023-03-25T10:42:18;99619.56;;;19.05;58.66
55675;BME280;41562;44.330;23.802;2023-03-25T10:44:49;99623.41;;;19.04;58.44
55675;BME280;41562;44.330;23.802;2023-03-25T10:47:19;99618.53;;;19.21;57.73
55675;BME280;41562;44.330;23.802;2023-03-25T10:49:50;99616.75;;;19.13;57.86
55675;BME280;41562;44.330;23.802;2023-03-25T10:52:18;99619.25;;;19.06;57.76
55675;BME280;41562;44.330;23.802;2023-03-25T10:54:50;99608.91;;;19.24;57.75
55675;BME280;41562;44.330;23.802;2023-03-25T10:57:24;99613.50;;;19.36;58.40
55675;BME280;41562;44.330;23.802;2023-03-25T11:00:03;99606.31;;;19.27;56.77
55675;BME280;41562;44.330;23.802;2023-03-25T11:02:32;99615.41;;;19.35;56.24
55675;BME280;41562;44.330;23.802;2023-03-25T11:05:02;99600.72;;;19.48;55.79
55675;BME280;41562;44.330;23.802;2023-03-25T11:07:39;99595.41;;;19.52;55.99
55675;BME280;41562;44.330;23.802;2023-03-25T11:10:27;99595.75;;;19.38;57.71
55675;BME280;41562;44.330;23.802;2023-03-25T11:12:55;99591.00;;;19.07;55.70
55675;BME280;41562;44.330;23.802;2023-03-25T11:15:35;99591.72;;;19.32;56.89
55675;BME280;41562;44.330;23.802;2023-03-25T11:18:09;99579.41;;;19.35;56.02
55675;BME280;41562;44.330;23.802;2023-03-25T11:20:57;99579.50;;;19.38;55.31
55675;BME280;41562;44.330;23.802;2023-03-25T11:23:33;99567.75;;;19.46;54.40
55675;BME280;41562;44.330;23.802;2023-03-25T11:26:06;99567.94;;;19.53;59.21
55675;BME280;41562;44.330;23.802;2023-03-25T11:28:43;99559.84;;;20.16;56.13
55675;BME280;41562;44.330;23.802;2023-03-25T11:31:25;99560.03;;;20.39;57.12
55675;BME280;41562;44.330;23.802;2023-03-25T11:36:46;99552.25;;;20.72;54.35
55675;BME280;41562;44.330;23.802;2023-03-25T11:39:37;99542.19;;;20.57;50.67
55675;BME280;41562;44.330;23.802;2023-03-25T11:42:32;99545.41;;;20.78;50.60
55675;BME280;41562;44.330;23.802;2023-03-25T11:45:01;99547.97;;;20.71;50.14
55675;BME280;41562;44.330;23.802;2023-03-25T11:47:31;99546.03;;;20.72;49.06
55675;BME280;41562;44.330;23.802;2023-03-25T11:50:00;99544.28;;;20.64;49.48
55675;BME280;41562;44.330;23.802;2023-03-25T11:52:44;99543.44;;;20.60;50.02
55675;BME280;41562;44.330;23.802;2023-03-25T11:55:22;99528.72;;;20.61;50.06
55675;BME280;41562;44.330;23.802;2023-03-25T11:57:52;99527.56;;;20.81;49.58
55675;BME280;41562;44.330;23.802;2023-03-25T12:05:32;99530.50;;;20.06;49.08
55675;BME280;41562;44.330;23.802;2023-03-25T12:08:13;99530.34;;;19.99;49.05
55675;BME280;41562;44.330;23.802;2023-03-25T12:34:25;99498.19;;;20.32;48.46
55675;BME280;41562;44.330;23.802;2023-03-25T12:42:34;99491.03;;;20.08;49.19
55675;BME280;41562;44.330;23.802;2023-03-25T12:50:41;99485.88;;;20.03;49.22
55675;BME280;41562;44.330;23.802;2023-03-25T12:53:18;99475.25;;;20.14;50.19
55675;BME280;41562;44.330;23.802;2023-03-25T12:56:02;99472.72;;;20.21;50.89
55675;BME280;41562;44.330;23.802;2023-03-25T13:12:12;99452.50;;;20.03;48.95
55675;BME280;41562;44.330;23.802;2023-03-25T13:15:04;99453.41;;;19.91;49.15
55675;BME280;41562;44.330;23.802;2023-03-25T13:17:40;99448.28;;;20.05;49.33
55675;BME280;41562;44.330;23.802;2023-03-25T13:20:10;99448.22;;;20.02;49.78
55675;BME280;41562;44.330;23.802;2023-03-25T13:22:46;99444.47;;;19.91;48.62
55675;BME280;41562;44.330;23.802;2023-03-25T13:25:31;99435.44;;;19.87;49.91
55675;BME280;41562;44.330;23.802;2023-03-25T13:28:02;99438.88;;;19.84;49.98
55675;BME280;41562;44.330;23.802;2023-03-25T13:30:33;99435.66;;;19.78;49.60
55675;BME280;41562;44.330;23.802;2023-03-25T13:33:16;99435.56;;;19.75;50.46
55675;BME280;41562;44.330;23.802;2023-03-25T13:35:52;99430.91;;;19.75;52.61
55675;BME280;41562;44.330;23.802;2023-03-25T13:38:33;99424.69;;;19.90;50.57
55675;BME280;41562;44.330;23.802;2023-03-25T13:44:10;99412.50;;;20.00;50.22
55675;BME280;41562;44.330;23.802;2023-03-25T13:46:46;99418.25;;;20.14;53.27
55675;BME280;41562;44.330;23.802;2023-03-25T13:51:42;99415.47;;;20.11;49.55
55675;BME280;41562;44.330;23.802;2023-03-25T13:59:50;99416.50;;;20.06;49.57
55675;BME280;41562;44.330;23.802;2023-03-25T14:10:53;99400.63;;;19.73;49.15
55675;BME280;41562;44.330;23.802;2023-03-25T14:13:30;99400.84;;;19.64;48.83
55675;BME280;41562;44.330;23.802;2023-03-25T14:18:29;99401.91;;;19.60;50.05
55675;BME280;41562;44.330;23.802;2023-03-25T14:21:30;99399.91;;;19.29;49.71
55675;BME280;41562;44.330;23.802;2023-03-25T14:26:43;99389.34;;;19.40;51.67
55675;BME280;41562;44.330;23.802;2023-03-25T14:29:35;99391.44;;;19.31;50.97
55675;BME280;41562;44.330;23.802;2023-03-25T14:34:45;99393.28;;;19.74;51.25
55675;BME280;41562;44.330;23.802;2023-03-25T14:39:43;99378.50;;;20.06;49.60
55675;BME280;41562;44.330;23.802;2023-03-25T14:42:26;99382.38;;;20.40;50.68
55675;BME280;41562;44.330;23.802;2023-03-25T14:45:36;99374.56;;;20.38;49.10
55675;BME280;41562;44.330;23.802;2023-03-25T14:48:05;99378.88;;;20.59;49.95
55675;BME280;41562;44.330;23.802;2023-03-25T14:51:04;99369.81;;;20.16;49.41
55675;BME280;41562;44.330;23.802;2023-03-25T14:53:35;99370.72;;;20.04;50.33
55675;BME280;41562;44.330;23.802;2023-03-25T14:56:17;99374.13;;;20.56;49.23
55675;BME280;41562;44.330;23.802;2023-03-25T14:58:50;99360.25;;;20.22;49.50
55675;BME280;41562;44.330;23.802;2023-03-25T15:01:20;99366.53;;;20.26;50.08
55675;BME280;41562;44.330;23.802;2023-03-25T15:04:07;99372.09;;;20.14;50.62
55675;BME280;41562;44.330;23.802;2023-03-25T15:06:36;99376.72;;;19.94;52.90
55675;BME280;41562;44.330;23.802;2023-03-25T15:09:10;99368.06;;;19.89;51.01
55675;BME280;41562;44.330;23.802;2023-03-25T15:11:43;99364.84;;;19.67;51.59
55675;BME280;41562;44.330;23.802;2023-03-25T15:14:18;99361.34;;;19.67;52.15
55675;BME280;41562;44.330;23.802;2023-03-25T15:19:16;99371.41;;;19.35;52.51
55675;BME280;41562;44.330;23.802;2023-03-25T15:24:28;99367.66;;;19.24;53.08
55675;BME280;41562;44.330;23.802;2023-03-25T15:27:02;99364.00;;;19.48;55.19
55675;BME280;41562;44.330;23.802;2023-03-25T15:32:46;99365.91;;;19.16;52.70
55675;BME280;41562;44.330;23.802;2023-03-25T15:35:35;99365.31;;;19.38;52.82
55675;BME280;41562;44.330;23.802;2023-03-25T15:52:21;99364.38;;;19.97;51.59
55675;BME280;41562;44.330;23.802;2023-03-25T15:55:10;99364.16;;;19.71;52.24
55675;BME280;41562;44.330;23.802;2023-03-25T15:57:43;99365.84;;;19.94;51.83
55675;BME280;41562;44.330;23.802;2023-03-25T16:00:26;99360.56;;;19.66;52.68
55675;BME280;41562;44.330;23.802;2023-03-25T16:05:30;99373.28;;;19.47;53.57
55675;BME280;41562;44.330;23.802;2023-03-25T16:08:04;99370.59;;;19.03;53.82
55675;BME280;41562;44.330;23.802;2023-03-25T16:10:34;99370.28;;;18.61;55.74
55675;BME280;41562;44.330;23.802;2023-03-25T16:13:09;99365.59;;;18.34;56.14